Time;durP1;ratioP1;P1;durP2;ratioP2;P2;SDS_P1;SDS_P2;PMS_P1;PMS_P2;Temp;Humidity;BMP_temperature;BMP_pressure;BME280_temperature;BME280_humidity;BME280_pressure;Samples;Min_cycle;Max_cycle;Signal;HPM_P1;HPM_P2
2022/06/06 00:01:18;;;;;;;;;;;18.20;87.50;;;;;;5087264;28;19991;-73
2022/06/06 00:03:44;;;;;;;;;;;18.20;87.40;;;;;;5105932;28;20173;-73
2022/06/06 00:06:14;;;;;;;;;;;18.20;87.70;;;;;;5105018;28;20010;-74
2022/06/06 00:08:40;;;;;;;;;;;18.20;87.60;;;;;;5104575;28;19912;-74
2022/06/06 00:11:08;;;;;;;;;;;18.20;87.80;;;;;;5113912;28;19915;-74
2022/06/06 00:13:34;;;;;;;;;;;18.20;87.60;;;;;;5114938;27;19919;-74
2022/06/06 00:16:00;;;;;;;;;;;18.10;88.40;;;;;;5106928;28;19916;-74
2022/06/06 00:18:25;;;;;;;;;;;18.10;88.10;;;;;;5104095;28;19915;-74
2022/06/06 00:20:51;;;;;;;;;;;18.20;88.10;;;;;;5110334;28;19911;-74
2022/06/06 00:23:17;;;;;;;;;;;18.10;87.60;;;;;;5106412;28;19916;-74
2022/06/06 00:25:42;;;;;;;;;;;18.10;87.40;;;;;;5104796;28;20522;-74
2022/06/06 00:28:08;;;;;;;;;;;18.10;87.70;;;;;;5122555;27;20005;-74
2022/06/06 00:30:33;;;;;;;;;;;18.10;87.40;;;;;;5116472;27;19919;-74
2022/06/06 00:35:43;;;;;;;;;;;18.10;87.00;;;;;;5108731;28;20032;-74
2022/06/06 00:38:09;;;;;;;;;;;18.10;87.50;;;;;;5103370;28;20459;-73
2022/06/06 00:40:34;;;;;;;;;;;18.10;87.80;;;;;;5109525;27;19908;-74
2022/06/06 00:43:03;;;;;;;;;;;18.00;87.90;;;;;;5106455;28;20296;-74
2022/06/06 00:45:30;;;;;;;;;;;18.00;87.50;;;;;;5109279;28;19919;-73
2022/06/06 00:47:59;;;;;;;;;;;18.00;88.00;;;;;;5107791;28;19922;-74
2022/06/06 00:50:30;;;;;;;;;;;18.00;87.60;;;;;;5118104;27;19923;-74
2022/06/06 00:52:56;;;;;;;;;;;18.00;87.30;;;;;;5106060;28;19915;-74
2022/06/06 00:55:25;;;;;;;;;;;18.00;87.60;;;;;;5118033;27;19918;-73
2022/06/06 00:57:56;;;;;;;;;;;17.90;87.50;;;;;;5111000;27;19942;-74
2022/06/06 01:00:22;;;;;;;;;;;17.90;87.50;;;;;;5106966;27;20559;-74
2022/06/06 01:02:51;;;;;;;;;;;17.90;87.60;;;;;;5109504;28;19918;-74
2022/06/06 01:05:17;;;;;;;;;;;18.00;87.40;;;;;;5107421;27;20607;-74
2022/06/06 01:07:42;;;;;;;;;;;17.90;87.30;;;;;;5108794;28;19919;-74
2022/06/06 01:10:08;;;;;;;;;;;17.90;87.70;;;;;;5106684;27;19916;-74
2022/06/06 01:12:34;;;;;;;;;;;17.90;87.10;;;;;;5111708;27;19923;-74
2022/06/06 01:15:05;;;;;;;;;;;17.90;87.00;;;;;;5104308;27;19920;-73
2022/06/06 01:17:53;;;;;;;;;;;17.90;87.10;;;;;;5112025;27;19958;-73
2022/06/06 01:20:19;;;;;;;;;;;17.80;87.10;;;;;;5072457;27;20374;-74
2022/06/06 01:22:45;;;;;;;;;;;17.80;87.10;;;;;;5108376;28;19918;-74
2022/06/06 01:25:21;;;;;;;;;;;17.80;87.50;;;;;;5112097;27;19915;-74
2022/06/06 01:27:57;;;;;;;;;;;17.80;88.30;;;;;;5096657;28;20368;-74
2022/06/06 01:30:24;;;;;;;;;;;17.80;87.50;;;;;;5106154;28;19916;-73
2022/06/06 01:32:52;;;;;;;;;;;17.80;87.40;;;;;;5108485;28;19915;-73
2022/06/06 01:35:22;;;;;;;;;;;17.80;87.60;;;;;;5105744;28;19936;-74
2022/06/06 01:37:47;;;;;;;;;;;17.70;87.20;;;;;;5108490;28;20694;-74
2022/06/06 01:40:14;;;;;;;;;;;17.70;87.10;;;;;;5106138;28;19911;-74
2022/06/06 01:42:47;;;;;;;;;;;17.70;87.50;;;;;;5107789;28;20348;-73
2022/06/06 01:45:12;;;;;;;;;;;17.70;87.70;;;;;;5107797;28;19947;-74
2022/06/06 01:47:41;;;;;;;;;;;17.70;87.40;;;;;;5105462;28;20011;-73
2022/06/06 01:50:08;;;;;;;;;;;17.70;87.60;;;;;;5108359;27;19985;-73
2022/06/06 01:53:09;;;;;;;;;;;17.70;87.10;;;;;;5103313;27;19919;-74
2022/06/06 01:55:35;;;;;;;;;;;17.70;87.50;;;;;;5052974;28;20399;-74
2022/06/06 01:58:02;;;;;;;;;;;17.70;87.30;;;;;;5097274;28;19985;-74
2022/06/06 02:00:30;;;;;;;;;;;17.60;87.40;;;;;;5108424;28;19911;-74
2022/06/06 02:02:55;;;;;;;;;;;17.60;87.40;;;;;;5111136;27;19946;-74
2022/06/06 02:05:21;;;;;;;;;;;17.60;87.50;;;;;;5116464;27;19951;-74
2022/06/06 02:07:46;;;;;;;;;;;17.60;87.60;;;;;;5105363;28;19996;-73
2022/06/06 02:10:13;;;;;;;;;;;17.60;87.50;;;;;;5105210;28;19963;-74
2022/06/06 02:12:39;;;;;;;;;;;17.60;87.40;;;;;;5099925;27;20652;-73
2022/06/06 02:15:05;;;;;;;;;;;17.60;87.70;;;;;;5128604;27;20080;-74
2022/06/06 02:17:31;;;;;;;;;;;17.50;87.50;;;;;;5159192;27;20299;-74
2022/06/06 02:19:57;;;;;;;;;;;17.50;87.80;;;;;;5111879;27;19911;-74
2022/06/06 02:22:22;;;;;;;;;;;17.50;87.70;;;;;;5106528;28;19922;-73
2022/06/06 02:24:48;;;;;;;;;;;17.50;87.70;;;;;;5123205;27;19911;-73
2022/06/06 02:27:13;;;;;;;;;;;17.50;87.60;;;;;;5111378;27;20526;-73
2022/06/06 02:29:39;;;;;;;;;;;17.50;87.90;;;;;;5108896;28;19924;-73
2022/06/06 02:32:05;;;;;;;;;;;17.50;88.00;;;;;;5108606;28;19916;-73
2022/06/06 02:34:30;;;;;;;;;;;17.50;88.30;;;;;;5107566;28;19925;-72
2022/06/06 02:36:56;;;;;;;;;;;17.40;87.80;;;;;;5111770;27;20458;-73
2022/06/06 02:39:22;;;;;;;;;;;17.40;87.40;;;;;;5108664;27;19923;-73
2022/06/06 02:41:47;;;;;;;;;;;17.50;87.80;;;;;;5108130;28;20026;-73
2022/06/06 02:44:12;;;;;;;;;;;17.40;87.90;;;;;;5113369;27;19922;-73
2022/06/06 02:46:38;;;;;;;;;;;17.40;87.80;;;;;;5107772;28;20123;-73
2022/06/06 02:49:03;;;;;;;;;;;17.40;87.80;;;;;;5105468;28;19923;-73
2022/06/06 02:51:29;;;;;;;;;;;17.40;88.00;;;;;;5114149;27;19955;-73
2022/06/06 02:53:55;;;;;;;;;;;17.40;87.90;;;;;;5110280;27;19920;-74
2022/06/06 02:56:20;;;;;;;;;;;17.40;87.80;;;;;;5107636;28;20447;-74
2022/06/06 02:58:46;;;;;;;;;;;17.30;88.10;;;;;;5105815;27;19916;-74
2022/06/06 03:01:12;;;;;;;;;;;17.30;88.20;;;;;;5107656;28;19911;-73
2022/06/06 03:03:38;;;;;;;;;;;17.30;88.10;;;;;;5105224;28;19943;-73
2022/06/06 03:06:12;;;;;;;;;;;17.30;88.00;;;;;;5106263;28;19943;-73
2022/06/06 03:08:59;;;;;;;;;;;17.30;88.40;;;;;;5102926;28;19934;-73
2022/06/06 03:11:33;;;;;;;;;;;17.30;88.50;;;;;;5105428;28;19918;-73
2022/06/06 03:14:18;;;;;;;;;;;17.30;88.20;;;;;;5103454;27;20225;-73
2022/06/06 03:22:44;;;;;;;;;;;17.30;88.60;;;;;;5107677;27;19919;-72
2022/06/06 03:25:10;;;;;;;;;;;17.30;88.20;;;;;;5105872;27;19922;-73
2022/06/06 03:27:39;;;;;;;;;;;17.30;88.50;;;;;;5105809;28;20455;-73
2022/06/06 03:30:08;;;;;;;;;;;17.20;88.50;;;;;;5103933;28;19946;-73
2022/06/06 03:32:46;;;;;;;;;;;17.20;88.30;;;;;;5104825;28;19916;-74
2022/06/06 03:35:12;;;;;;;;;;;17.20;88.30;;;;;;5103819;27;20300;-73
2022/06/06 03:37:40;;;;;;;;;;;17.20;88.20;;;;;;5104399;28;20018;-73
2022/06/06 03:40:08;;;;;;;;;;;17.20;88.30;;;;;;5103555;28;19915;-74
2022/06/06 03:42:34;;;;;;;;;;;17.20;88.30;;;;;;5105812;28;19939;-73
2022/06/06 03:45:02;;;;;;;;;;;17.20;88.40;;;;;;5103941;28;19916;-73
2022/06/06 03:47:57;;;;;;;;;;;17.20;88.30;;;;;;5105956;28;19994;-74
2022/06/06 03:50:22;;;;;;;;;;;17.20;88.70;;;;;;5065124;28;20347;-74
2022/06/06 03:52:52;;;;;;;;;;;17.20;88.70;;;;;;5103512;28;19976;-73
2022/06/06 03:55:17;;;;;;;;;;;17.20;88.50;;;;;;5108564;27;20016;-74
2022/06/06 03:57:45;;;;;;;;;;;17.20;88.50;;;;;;5104790;28;19912;-74
2022/06/06 04:00:12;;;;;;;;;;;17.10;88.30;;;;;;5105909;28;19912;-74
2022/06/06 04:02:37;;;;;;;;;;;17.10;88.40;;;;;;5102392;28;19989;-73
2022/06/06 04:05:06;;;;;;;;;;;17.20;88.50;;;;;;5106013;28;19973;-74
2022/06/06 04:07:33;;;;;;;;;;;17.20;88.70;;;;;;5099213;28;19919;-74
2022/06/06 04:09:59;;;;;;;;;;;17.10;88.80;;;;;;5107577;27;19964;-74
2022/06/06 04:12:43;;;;;;;;;;;17.10;88.80;;;;;;5108855;27;19939;-74
2022/06/06 04:15:26;;;;;;;;;;;17.10;88.90;;;;;;5105364;28;19912;-74
2022/06/06 04:17:56;;;;;;;;;;;17.10;88.70;;;;;;5104597;28;20384;-74
2022/06/06 04:20:24;;;;;;;;;;;17.10;89.10;;;;;;5104019;28;20492;-74
2022/06/06 04:22:52;;;;;;;;;;;17.10;89.20;;;;;;5103136;28;19919;-74
2022/06/06 04:25:30;;;;;;;;;;;17.10;89.40;;;;;;5110881;28;19998;-74
2022/06/06 04:28:05;;;;;;;;;;;17.10;89.10;;;;;;5102667;28;20722;-74
2022/06/06 04:30:40;;;;;;;;;;;17.10;88.70;;;;;;5105642;28;20327;-73
2022/06/06 04:33:17;;;;;;;;;;;17.10;88.80;;;;;;5102890;28;19923;-74
2022/06/06 04:35:55;;;;;;;;;;;17.10;88.60;;;;;;5105917;28;20472;-74
2022/06/06 04:38:43;;;;;;;;;;;17.10;88.70;;;;;;5102985;28;19923;-74
2022/06/06 04:41:28;;;;;;;;;;;17.00;89.10;;;;;;5089900;28;19916;-74
2022/06/06 04:44:01;;;;;;;;;;;17.10;89.10;;;;;;5103261;28;19969;-74
2022/06/06 04:46:35;;;;;;;;;;;17.10;89.30;;;;;;5105052;28;19998;-74
2022/06/06 04:49:01;;;;;;;;;;;17.00;88.90;;;;;;5097438;28;20623;-75
2022/06/06 04:51:27;;;;;;;;;;;17.00;89.40;;;;;;5105460;28;19919;-74
2022/06/06 04:53:54;;;;;;;;;;;17.10;89.20;;;;;;5102450;28;20431;-74
2022/06/06 04:56:21;;;;;;;;;;;17.10;88.80;;;;;;5110273;28;19943;-74
2022/06/06 04:58:53;;;;;;;;;;;17.10;88.80;;;;;;5102755;28;19916;-74
2022/06/06 05:01:19;;;;;;;;;;;17.10;88.70;;;;;;5105568;28;19911;-74
2022/06/06 05:03:45;;;;;;;;;;;17.10;89.60;;;;;;5102676;28;20226;-74
2022/06/06 05:06:13;;;;;;;;;;;17.10;89.60;;;;;;5105254;28;20529;-74
2022/06/06 05:08:50;;;;;;;;;;;17.10;89.80;;;;;;5102751;28;19981;-75
2022/06/06 05:11:22;;;;;;;;;;;17.10;89.50;;;;;;5103794;28;19914;-75
2022/06/06 05:14:23;;;;;;;;;;;17.10;90.00;;;;;;5106146;28;20012;-74
2022/06/06 05:16:56;;;;;;;;;;;17.10;90.00;;;;;;5055077;28;19913;-74
2022/06/06 05:19:22;;;;;;;;;;;17.00;88.80;;;;;;5090047;27;20508;-74
2022/06/06 05:21:51;;;;;;;;;;;17.10;89.30;;;;;;5113817;27;19912;-74
2022/06/06 05:24:37;;;;;;;;;;;17.10;89.20;;;;;;5105847;27;19919;-74
2022/06/06 05:27:14;;;;;;;;;;;17.10;89.20;;;;;;5107643;28;19923;-74
2022/06/06 05:30:06;;;;;;;;;;;17.10;88.90;;;;;;5106622;28;19919;-74
2022/06/06 05:32:35;;;;;;;;;;;17.10;89.00;;;;;;5097210;28;19912;-74
2022/06/06 05:35:00;;;;;;;;;;;17.20;89.00;;;;;;5106261;28;20027;-74
2022/06/06 05:37:49;;;;;;;;;;;17.20;88.90;;;;;;5108462;28;20011;-74
2022/06/06 05:40:22;;;;;;;;;;;17.10;88.70;;;;;;5100517;28;19922;-74
2022/06/06 05:42:48;;;;;;;;;;;17.10;88.60;;;;;;5108489;28;20375;-74
2022/06/06 05:45:46;;;;;;;;;;;17.10;88.50;;;;;;5106007;27;20039;-74
2022/06/06 05:48:11;;;;;;;;;;;17.20;88.60;;;;;;5075281;28;19920;-74
2022/06/06 05:50:57;;;;;;;;;;;17.10;89.00;;;;;;5105206;28;20543;-74
2022/06/06 05:53:35;;;;;;;;;;;17.10;88.60;;;;;;5105048;28;19920;-74
2022/06/06 05:56:09;;;;;;;;;;;17.10;88.80;;;;;;5105485;27;20042;-74
2022/06/06 05:58:53;;;;;;;;;;;17.20;88.50;;;;;;5106718;28;20311;-74
2022/06/06 06:01:34;;;;;;;;;;;17.20;88.50;;;;;;5106212;28;19916;-74
2022/06/06 06:04:02;;;;;;;;;;;17.20;88.40;;;;;;5107829;28;19916;-74
2022/06/06 06:06:43;;;;;;;;;;;17.20;88.60;;;;;;5105380;28;20000;-74
2022/06/06 06:09:33;;;;;;;;;;;17.20;88.50;;;;;;5108357;28;19912;-74
2022/06/06 06:12:13;;;;;;;;;;;17.20;88.60;;;;;;5107122;27;19927;-74
2022/06/06 06:14:56;;;;;;;;;;;17.20;88.50;;;;;;5104109;28;19920;-74
2022/06/06 06:17:26;;;;;;;;;;;17.20;88.30;;;;;;5108975;27;19947;-74
2022/06/06 06:20:10;;;;;;;;;;;17.20;88.40;;;;;;5104838;28;19943;-74
2022/06/06 06:22:44;;;;;;;;;;;17.20;88.80;;;;;;5104983;27;20621;-74
2022/06/06 06:25:10;;;;;;;;;;;17.20;88.40;;;;;;5124017;27;19911;-74
2022/06/06 06:27:36;;;;;;;;;;;17.20;88.30;;;;;;5157129;27;19923;-74
2022/06/06 06:30:04;;;;;;;;;;;17.20;88.20;;;;;;5106684;28;20311;-74
2022/06/06 06:32:30;;;;;;;;;;;17.20;88.60;;;;;;5109516;27;19915;-74
2022/06/06 06:35:02;;;;;;;;;;;17.20;88.10;;;;;;5106592;28;19912;-74
2022/06/06 06:37:36;;;;;;;;;;;17.20;88.00;;;;;;5103675;27;19915;-73
2022/06/06 06:40:02;;;;;;;;;;;17.20;88.00;;;;;;5106846;28;20026;-74
2022/06/06 06:42:27;;;;;;;;;;;17.10;88.10;;;;;;5103379;28;20650;-74
2022/06/06 06:44:54;;;;;;;;;;;17.10;88.10;;;;;;5105004;28;19926;-74
2022/06/06 06:47:26;;;;;;;;;;;17.10;88.00;;;;;;5102920;27;19984;-74
2022/06/06 06:49:55;;;;;;;;;;;17.10;87.90;;;;;;5105414;28;19977;-74
2022/06/06 06:52:23;;;;;;;;;;;17.20;87.80;;;;;;5101503;28;19916;-74
2022/06/06 06:55:15;;;;;;;;;;;17.20;87.70;;;;;;5105103;28;20269;-74
2022/06/06 06:58:00;;;;;;;;;;;17.20;87.50;;;;;;5078254;28;19920;-74
2022/06/06 07:00:25;;;;;;;;;;;17.20;87.50;;;;;;5106544;28;19912;-74
2022/06/06 07:09:26;;;;;;;;;;;17.20;87.40;;;;;;5095780;28;20436;-74
2022/06/06 07:11:51;;;;;;;;;;;17.30;87.30;;;;;;5072039;28;19939;-74
2022/06/06 07:14:20;;;;;;;;;;;17.30;87.20;;;;;;5102741;27;19911;-74
2022/06/06 07:16:49;;;;;;;;;;;17.30;87.60;;;;;;5102789;28;19922;-74
2022/06/06 07:19:14;;;;;;;;;;;17.30;86.60;;;;;;5100878;27;20490;-74
2022/06/06 07:21:41;;;;;;;;;;;17.40;86.60;;;;;;5115594;27;19923;-74
2022/06/06 07:24:08;;;;;;;;;;;17.40;86.70;;;;;;5105092;27;19916;-73
2022/06/06 07:26:38;;;;;;;;;;;17.30;86.50;;;;;;5105202;28;20012;-75
2022/06/06 07:29:05;;;;;;;;;;;17.30;86.60;;;;;;5102314;28;20319;-74
2022/06/06 07:31:36;;;;;;;;;;;17.30;86.70;;;;;;5104871;28;19969;-74
2022/06/06 07:34:14;;;;;;;;;;;17.30;86.50;;;;;;5102744;28;19993;-74
2022/06/06 07:36:40;;;;;;;;;;;17.30;86.40;;;;;;5106121;28;19916;-74
2022/06/06 07:39:08;;;;;;;;;;;17.30;86.40;;;;;;5104085;28;20016;-74
2022/06/06 07:41:46;;;;;;;;;;;17.30;86.20;;;;;;5108439;27;19916;-74
2022/06/06 07:44:20;;;;;;;;;;;17.30;86.20;;;;;;5102322;28;19916;-74
2022/06/06 07:47:00;;;;;;;;;;;17.40;86.00;;;;;;5105652;27;20325;-74
2022/06/06 07:49:44;;;;;;;;;;;17.30;85.70;;;;;;5094170;28;20485;-74
2022/06/06 07:52:10;;;;;;;;;;;17.40;85.70;;;;;;5105297;28;19927;-74
2022/06/06 07:54:35;;;;;;;;;;;17.40;85.80;;;;;;5103946;28;20507;-74
2022/06/06 07:57:01;;;;;;;;;;;17.40;85.60;;;;;;5116283;27;19912;-74
2022/06/06 07:59:47;;;;;;;;;;;17.40;85.70;;;;;;5117822;27;19912;-73
2022/06/06 08:02:13;;;;;;;;;;;17.40;85.50;;;;;;5104322;27;19969;-74
2022/06/06 08:04:38;;;;;;;;;;;17.40;85.60;;;;;;5104488;28;19907;-74
2022/06/06 08:07:10;;;;;;;;;;;17.40;85.30;;;;;;5102408;28;19915;-74
2022/06/06 08:09:38;;;;;;;;;;;17.40;85.10;;;;;;5104871;28;19995;-73
2022/06/06 08:12:12;;;;;;;;;;;17.40;85.20;;;;;;5102764;28;19922;-74
2022/06/06 08:14:38;;;;;;;;;;;17.50;85.00;;;;;;5098979;28;20743;-73
2022/06/06 08:17:14;;;;;;;;;;;17.50;84.80;;;;;;5097474;28;19968;-74
2022/06/06 08:19:44;;;;;;;;;;;17.50;84.80;;;;;;5101673;28;20010;-74
2022/06/06 08:22:10;;;;;;;;;;;17.50;84.60;;;;;;5102400;28;19927;-73
2022/06/06 08:24:47;;;;;;;;;;;17.50;84.60;;;;;;5118207;28;19911;-73
2022/06/06 08:27:14;;;;;;;;;;;17.60;84.50;;;;;;5110184;27;20077;-73
2022/06/06 08:29:41;;;;;;;;;;;17.60;84.40;;;;;;5103244;28;19945;-73
2022/06/06 08:32:07;;;;;;;;;;;17.60;84.50;;;;;;5102780;28;20325;-73
2022/06/06 08:34:33;;;;;;;;;;;17.60;84.30;;;;;;5105663;28;19965;-73
2022/06/06 08:36:58;;;;;;;;;;;17.70;84.10;;;;;;5102869;28;19915;-74
2022/06/06 08:39:42;;;;;;;;;;;17.70;84.10;;;;;;5105311;28;20272;-73
2022/06/06 08:42:13;;;;;;;;;;;17.70;83.80;;;;;;5102712;28;19922;-73
2022/06/06 08:44:57;;;;;;;;;;;17.70;83.50;;;;;;5106510;28;19916;-73
2022/06/06 08:47:32;;;;;;;;;;;17.70;83.30;;;;;;5104580;28;19977;-73
2022/06/06 08:52:54;;;;;;;;;;;17.80;83.40;;;;;;5107255;28;19926;-73
2022/06/06 08:55:22;;;;;;;;;;;17.80;82.90;;;;;;5111214;27;19964;-74
2022/06/06 08:57:49;;;;;;;;;;;17.80;82.80;;;;;;5103085;27;20348;-73
2022/06/06 09:00:20;;;;;;;;;;;17.90;82.60;;;;;;5108570;28;19916;-73
2022/06/06 09:02:51;;;;;;;;;;;18.00;82.50;;;;;;5106098;28;19989;-73
2022/06/06 09:05:26;;;;;;;;;;;18.10;81.80;;;;;;5105773;28;19954;-73
2022/06/06 09:07:52;;;;;;;;;;;18.10;81.70;;;;;;5101997;27;19923;-73
2022/06/06 09:10:36;;;;;;;;;;;18.20;80.80;;;;;;5107857;28;19916;-74
2022/06/06 09:13:01;;;;;;;;;;;18.20;81.20;;;;;;5104578;27;19972;-74
2022/06/06 09:15:33;;;;;;;;;;;18.30;80.40;;;;;;5107399;27;19916;-73
2022/06/06 09:18:17;;;;;;;;;;;18.30;80.80;;;;;;5104884;28;20788;-74
2022/06/06 09:20:49;;;;;;;;;;;18.40;80.30;;;;;;5108557;27;19915;-73
2022/06/06 09:23:15;;;;;;;;;;;18.50;80.00;;;;;;5106765;27;20390;-73
2022/06/06 09:25:46;;;;;;;;;;;18.60;79.50;;;;;;5108515;28;19908;-73
2022/06/06 09:28:23;;;;;;;;;;;18.60;79.40;;;;;;5107071;27;20023;-74
2022/06/06 09:30:52;;;;;;;;;;;18.70;79.40;;;;;;5105734;28;19920;-74
2022/06/06 09:33:36;;;;;;;;;;;18.70;79.50;;;;;;5107505;28;19915;-73
2022/06/06 09:36:10;;;;;;;;;;;18.70;79.40;;;;;;5102301;27;20283;-74
2022/06/06 09:38:52;;;;;;;;;;;18.80;78.90;;;;;;5106161;28;19912;-74
2022/06/06 09:41:29;;;;;;;;;;;18.80;78.90;;;;;;5106842;28;19907;-74
2022/06/06 09:44:07;;;;;;;;;;;18.90;79.20;;;;;;5102447;28;19916;-73
2022/06/06 09:46:52;;;;;;;;;;;18.90;78.40;;;;;;5104201;28;20011;-73
2022/06/06 09:49:41;;;;;;;;;;;19.00;78.60;;;;;;5103281;27;20022;-73
2022/06/06 09:52:22;;;;;;;;;;;19.00;78.70;;;;;;5084177;28;19923;-74
2022/06/06 10:01:26;;;;;;;;;;;18.80;78.70;;;;;;5102538;28;19993;-74
2022/06/06 10:04:10;;;;;;;;;;;18.70;79.10;;;;;;5105118;28;20503;-73
2022/06/06 10:06:51;;;;;;;;;;;18.70;79.40;;;;;;5110326;27;19923;-74
2022/06/06 10:09:28;;;;;;;;;;;18.70;79.20;;;;;;5104807;27;20403;-74
2022/06/06 10:11:54;;;;;;;;;;;18.60;79.20;;;;;;5112922;27;19915;-73
2022/06/06 10:14:22;;;;;;;;;;;18.60;79.20;;;;;;5125538;27;19922;-73
2022/06/06 10:16:51;;;;;;;;;;;18.70;79.50;;;;;;5107696;27;19989;-73
2022/06/06 10:19:16;;;;;;;;;;;18.90;79.10;;;;;;5099235;27;19943;-73
2022/06/06 10:21:48;;;;;;;;;;;19.00;78.60;;;;;;5106953;27;20647;-73
2022/06/06 10:24:32;;;;;;;;;;;19.00;78.20;;;;;;5114209;27;20010;-73
2022/06/06 10:27:02;;;;;;;;;;;19.10;77.90;;;;;;5105121;28;19919;-73
2022/06/06 10:32:40;;;;;;;;;;;19.20;77.30;;;;;;5105475;28;20028;-74
2022/06/06 10:35:12;;;;;;;;;;;19.30;77.60;;;;;;5106759;28;19916;-74
2022/06/06 10:38:01;;;;;;;;;;;19.40;77.20;;;;;;5104585;28;20676;-74
2022/06/06 10:40:42;;;;;;;;;;;19.40;76.90;;;;;;5085467;28;19919;-74
2022/06/06 10:43:27;;;;;;;;;;;19.50;76.80;;;;;;5104365;27;19926;-73
2022/06/06 10:45:57;;;;;;;;;;;19.60;77.10;;;;;;5106980;28;19923;-73
2022/06/06 10:48:23;;;;;;;;;;;19.60;76.70;;;;;;5105272;28;20007;-73
2022/06/06 10:54:11;;;;;;;;;;;19.80;76.90;;;;;;5105663;28;20508;-73
2022/06/06 10:56:36;;;;;;;;;;;19.90;76.20;;;;;;5104403;28;19911;-73
2022/06/06 10:59:09;;;;;;;;;;;20.00;76.20;;;;;;5105474;28;19918;-73
2022/06/06 11:01:47;;;;;;;;;;;20.00;77.00;;;;;;5105772;28;20456;-73
2022/06/06 11:04:18;;;;;;;;;;;19.90;76.80;;;;;;5105263;28;19993;-74
2022/06/06 11:07:03;;;;;;;;;;;20.10;76.60;;;;;;5106595;28;19995;-74
2022/06/06 11:09:31;;;;;;;;;;;20.10;76.50;;;;;;5106792;27;19915;-73
2022/06/06 11:12:15;;;;;;;;;;;20.30;76.40;;;;;;5106006;28;19907;-73
2022/06/06 11:14:44;;;;;;;;;;;20.40;75.80;;;;;;5104573;28;20400;-73
2022/06/06 11:17:28;;;;;;;;;;;20.40;75.30;;;;;;5105209;28;19950;-73
2022/06/06 11:20:12;;;;;;;;;;;20.40;75.40;;;;;;5102957;28;19964;-73
2022/06/06 11:22:42;;;;;;;;;;;20.40;75.40;;;;;;5102706;28;20650;-74
2022/06/06 11:25:07;;;;;;;;;;;20.50;75.20;;;;;;5107073;27;19912;-73
2022/06/06 11:27:45;;;;;;;;;;;20.50;75.20;;;;;;5106090;28;20008;-73
2022/06/06 11:30:29;;;;;;;;;;;20.50;75.10;;;;;;5104797;28;19963;-73
2022/06/06 11:33:01;;;;;;;;;;;20.40;75.20;;;;;;5103734;28;20628;-73
2022/06/06 11:35:29;;;;;;;;;;;20.40;75.30;;;;;;5104315;28;19916;-73
2022/06/06 11:37:55;;;;;;;;;;;20.40;75.40;;;;;;5102307;28;19916;-74
2022/06/06 11:40:41;;;;;;;;;;;20.50;75.10;;;;;;5106682;27;19923;-73
2022/06/06 11:43:13;;;;;;;;;;;20.50;74.80;;;;;;5105914;28;19912;-73
2022/06/06 11:45:41;;;;;;;;;;;20.50;74.60;;;;;;5101729;28;20010;-73
2022/06/06 11:48:18;;;;;;;;;;;20.40;73.70;;;;;;5105001;28;20568;-73
2022/06/06 11:50:46;;;;;;;;;;;20.30;74.60;;;;;;5101131;28;19912;-73
2022/06/06 11:53:34;;;;;;;;;;;20.20;74.80;;;;;;5104987;28;19922;-73
2022/06/06 11:56:00;;;;;;;;;;;20.20;75.40;;;;;;5104416;27;19943;-73
2022/06/06 11:58:31;;;;;;;;;;;20.30;75.50;;;;;;5103287;28;20410;-73
2022/06/06 12:01:03;;;;;;;;;;;20.40;75.30;;;;;;5100062;28;19954;-73
2022/06/06 12:03:45;;;;;;;;;;;20.50;74.50;;;;;;5104878;28;19916;-73
2022/06/06 12:06:29;;;;;;;;;;;20.50;74.50;;;;;;5099628;28;19923;-74
2022/06/06 12:09:03;;;;;;;;;;;20.60;74.00;;;;;;5102949;28;20275;-73
2022/06/06 12:11:47;;;;;;;;;;;20.60;73.80;;;;;;5102512;28;19941;-73
2022/06/06 12:14:31;;;;;;;;;;;20.50;73.90;;;;;;5105652;28;19922;-73
2022/06/06 12:17:09;;;;;;;;;;;20.60;73.50;;;;;;5101921;28;20000;-74
2022/06/06 12:19:40;;;;;;;;;;;20.50;74.20;;;;;;5103777;28;19944;-73
2022/06/06 12:22:25;;;;;;;;;;;20.40;73.70;;;;;;5102012;28;19916;-73
2022/06/06 12:24:56;;;;;;;;;;;20.30;73.80;;;;;;5107098;28;19978;-74
2022/06/06 12:27:26;;;;;;;;;;;20.30;74.50;;;;;;5107682;27;20027;-73
2022/06/06 12:29:51;;;;;;;;;;;20.40;73.90;;;;;;5108680;28;20570;-74
2022/06/06 12:32:35;;;;;;;;;;;20.40;74.10;;;;;;5106863;28;19961;-72
2022/06/06 12:35:18;;;;;;;;;;;20.50;74.40;;;;;;5108098;28;20505;-73
2022/06/06 12:37:57;;;;;;;;;;;20.60;74.50;;;;;;5106659;27;19923;-73
2022/06/06 12:40:24;;;;;;;;;;;20.70;74.40;;;;;;5109415;28;20747;-73
2022/06/06 12:42:49;;;;;;;;;;;20.70;74.30;;;;;;5107528;28;20635;-73
2022/06/06 12:45:33;;;;;;;;;;;20.80;74.40;;;;;;5110136;28;19919;-73
2022/06/06 12:48:01;;;;;;;;;;;20.90;74.90;;;;;;5106418;28;19922;-73
2022/06/06 12:50:46;;;;;;;;;;;21.00;74.60;;;;;;5107080;28;19943;-73
2022/06/06 12:53:14;;;;;;;;;;;21.10;74.50;;;;;;5107650;28;20014;-73
2022/06/06 12:55:46;;;;;;;;;;;21.20;74.00;;;;;;5117706;27;19915;-73
2022/06/06 12:58:35;;;;;;;;;;;21.20;74.00;;;;;;5107925;28;20002;-73
2022/06/06 13:04:01;;;;;;;;;;;21.40;74.50;;;;;;5109249;28;19976;-72
2022/06/06 13:06:27;;;;;;;;;;;21.50;74.90;;;;;;5110705;28;19958;-72
2022/06/06 13:09:12;;;;;;;;;;;21.60;73.80;;;;;;5107288;28;19951;-73
2022/06/06 13:11:47;;;;;;;;;;;21.60;73.60;;;;;;5091990;28;19976;-72
2022/06/06 13:14:12;;;;;;;;;;;21.80;74.00;;;;;;5110596;27;19962;-72
2022/06/06 13:16:38;;;;;;;;;;;21.90;72.60;;;;;;5109138;28;19947;-72
2022/06/06 13:19:04;;;;;;;;;;;21.90;73.20;;;;;;5105196;28;19916;-72
2022/06/06 13:21:48;;;;;;;;;;;22.00;72.90;;;;;;5119870;27;20019;-73
2022/06/06 13:24:29;;;;;;;;;;;22.10;73.20;;;;;;5112461;27;19916;-72
2022/06/06 13:27:12;;;;;;;;;;;22.20;72.40;;;;;;5109555;28;19955;-72
2022/06/06 13:29:37;;;;;;;;;;;22.20;71.50;;;;;;5113087;27;19919;-72
2022/06/06 13:32:06;;;;;;;;;;;22.30;72.40;;;;;;5117320;27;19918;-71
2022/06/06 13:34:50;;;;;;;;;;;22.20;72.70;;;;;;5125632;27;20021;-80
2022/06/06 13:37:16;;;;;;;;;;;22.20;71.70;;;;;;5119224;27;19916;-75
2022/06/06 13:39:47;;;;;;;;;;;22.20;72.00;;;;;;5107542;27;19916;-75
2022/06/06 13:42:16;;;;;;;;;;;22.20;71.50;;;;;;5110245;28;19919;-73
2022/06/06 13:44:47;;;;;;;;;;;22.30;70.80;;;;;;5124506;27;19919;-74
2022/06/06 13:47:19;;;;;;;;;;;22.40;71.30;;;;;;5107151;28;19919;-75
2022/06/06 13:50:16;;;;;;;;;;;22.60;70.60;;;;;;5108587;27;19962;-74
2022/06/06 13:52:42;;;;;;;;;;;22.60;70.60;;;;;;5075164;28;19912;-75
2022/06/06 13:55:23;;;;;;;;;;;22.60;70.60;;;;;;5110889;27;20310;-76
2022/06/06 13:57:55;;;;;;;;;;;22.70;71.10;;;;;;5118004;27;19922;-77
2022/06/06 14:00:29;;;;;;;;;;;22.80;71.40;;;;;;5107786;28;20268;-76
2022/06/06 14:03:14;;;;;;;;;;;22.90;70.80;;;;;;5107495;28;20280;-76
2022/06/06 14:05:42;;;;;;;;;;;23.00;70.50;;;;;;5121155;27;19927;-75
2022/06/06 14:08:12;;;;;;;;;;;23.10;70.90;;;;;;5110044;27;20337;-77
2022/06/06 14:10:40;;;;;;;;;;;23.10;70.40;;;;;;5105814;27;19940;-77
2022/06/06 14:13:24;;;;;;;;;;;23.20;70.30;;;;;;5115423;27;19923;-77
2022/06/06 14:15:51;;;;;;;;;;;23.20;69.10;;;;;;5105703;28;20010;-77
2022/06/06 14:18:19;;;;;;;;;;;23.10;70.20;;;;;;5108494;27;19916;-77
2022/06/06 14:20:48;;;;;;;;;;;23.20;70.20;;;;;;5106463;27;20280;-78
2022/06/06 14:23:19;;;;;;;;;;;23.20;69.30;;;;;;5107520;27;19919;-78
2022/06/06 14:25:47;;;;;;;;;;;23.20;68.60;;;;;;5144265;27;19989;-77
2022/06/06 14:28:16;;;;;;;;;;;23.10;68.60;;;;;;5141442;27;19916;-77
2022/06/06 14:30:42;;;;;;;;;;;23.20;67.60;;;;;;5104587;27;19969;-77
2022/06/06 14:33:19;;;;;;;;;;;23.20;67.50;;;;;;5107292;27;19923;-76
2022/06/06 14:35:46;;;;;;;;;;;23.20;66.30;;;;;;5104251;28;19984;-77
2022/06/06 14:38:15;;;;;;;;;;;23.20;66.90;;;;;;5107074;28;19915;-76
2022/06/06 14:40:41;;;;;;;;;;;23.10;66.50;;;;;;5107551;27;19916;-76
2022/06/06 14:43:07;;;;;;;;;;;23.00;66.10;;;;;;5114612;27;19908;-76
2022/06/06 14:45:35;;;;;;;;;;;23.00;66.30;;;;;;5092783;27;19911;-76
2022/06/06 14:48:12;;;;;;;;;;;23.00;67.00;;;;;;5099501;27;20592;-77
2022/06/06 14:50:50;;;;;;;;;;;22.90;66.00;;;;;;5137381;27;19916;-77
2022/06/06 14:53:16;;;;;;;;;;;23.00;66.40;;;;;;5105508;28;19920;-76
2022/06/06 14:55:46;;;;;;;;;;;23.00;65.40;;;;;;5113354;27;19919;-77
2022/06/06 14:58:12;;;;;;;;;;;23.10;66.00;;;;;;5115534;27;19916;-77
2022/06/06 15:00:53;;;;;;;;;;;23.20;63.90;;;;;;5106478;27;20003;-77
2022/06/06 15:03:19;;;;;;;;;;;23.50;64.80;;;;;;5117264;27;19941;-76
2022/06/06 15:05:45;;;;;;;;;;;23.90;63.60;;;;;;5106198;28;20372;-76
2022/06/06 15:08:17;;;;;;;;;;;24.10;63.00;;;;;;5103486;28;19916;-77
2022/06/06 15:11:01;;;;;;;;;;;24.10;62.50;;;;;;5106209;28;19923;-77
2022/06/06 15:13:28;;;;;;;;;;;24.10;63.30;;;;;;5109077;27;19924;-77
2022/06/06 15:15:55;;;;;;;;;;;24.10;62.80;;;;;;5104349;28;19937;-77
2022/06/06 15:18:28;;;;;;;;;;;24.00;61.90;;;;;;5103291;28;19922;-77